createdAt,value
2022-09-12T00:01:19.376Z,27.30
2022-09-12T00:03:47.134Z,25.50
2022-09-12T00:08:50.740Z,30.77
2022-09-12T00:13:44.582Z,25.00
2022-09-12T00:16:17.299Z,24.45
2022-09-12T00:18:46.852Z,23.25
2022-09-12T00:21:15.432Z,27.20
2022-09-12T00:23:42.508Z,24.35
2022-09-12T00:26:10.258Z,22.60
2022-09-12T00:28:39.242Z,24.70
2022-09-12T00:31:08.841Z,22.77
2022-09-12T00:33:36.689Z,24.58
2022-09-12T00:36:15.583Z,23.50
2022-09-12T00:38:44.203Z,27.80
2022-09-12T00:41:15.638Z,25.60
2022-09-12T00:43:46.028Z,26.42
2022-09-12T00:46:35.680Z,28.38
2022-09-12T00:49:29.175Z,23.65
2022-09-12T00:52:03.555Z,26.40
2022-09-12T00:54:45.308Z,27.50
2022-09-12T00:57:15.883Z,24.85
2022-09-12T00:59:55.199Z,26.02
2022-09-12T01:02:22.971Z,23.20
2022-09-12T01:04:50.384Z,28.48
2022-09-12T01:07:17.696Z,21.45
2022-09-12T01:09:45.904Z,26.42
2022-09-12T01:12:14.968Z,21.33
2022-09-12T01:14:42.621Z,22.52
2022-09-12T01:20:04.480Z,24.90
2022-09-12T01:22:52.072Z,25.20
2022-09-12T01:25:48.761Z,25.10
2022-09-12T01:28:38.173Z,25.13
2022-09-12T01:31:29.870Z,25.08
2022-09-12T01:34:18.055Z,28.67
2022-09-12T01:37:09.212Z,34.08
2022-09-12T01:39:39.242Z,24.15
2022-09-12T01:42:24.494Z,32.08
2022-09-12T01:45:11.532Z,28.45
2022-09-12T01:47:53.785Z,26.77
2022-09-12T01:50:30.190Z,31.35
2022-09-12T01:53:42.221Z,26.98
2022-09-12T01:56:15.522Z,22.92
2022-09-12T01:58:54.826Z,30.38
2022-09-12T02:01:29.551Z,26.45
2022-09-12T02:04:18.274Z,27.73
2022-09-12T02:06:53.238Z,27.48
2022-09-12T02:09:27.982Z,29.08
2022-09-12T02:11:58.713Z,29.00
2022-09-12T02:14:33.938Z,28.67
2022-09-12T02:17:04.009Z,25.73
2022-09-12T02:19:36.402Z,24.38
2022-09-12T02:22:06.476Z,27.73
2022-09-12T02:24:40.308Z,23.15
2022-09-12T02:27:18.357Z,22.90
2022-09-12T02:29:46.068Z,26.60
2022-09-12T02:32:30.032Z,23.48
2022-09-12T02:35:07.301Z,23.63
2022-09-12T02:37:52.453Z,20.85
2022-09-12T02:40:19.596Z,26.35
2022-09-12T02:42:46.716Z,25.92
2022-09-12T02:45:13.986Z,29.27
2022-09-12T02:47:44.377Z,25.88
2022-09-12T02:50:11.944Z,24.38
2022-09-12T02:52:39.816Z,21.55
2022-09-12T02:57:34.028Z,33.72
2022-09-12T03:00:02.221Z,24.77
2022-09-12T03:02:55.077Z,22.17
2022-09-12T03:05:51.472Z,22.50
2022-09-12T03:08:24.189Z,23.00
2022-09-12T03:11:19.697Z,23.10
2022-09-12T03:14:05.943Z,25.00
2022-09-12T03:16:46.972Z,25.90
2022-09-12T03:19:23.779Z,23.75
2022-09-12T03:21:57.695Z,25.10
2022-09-12T03:24:38.441Z,18.88
2022-09-12T03:27:24.588Z,28.05
2022-09-12T03:29:52.935Z,26.00
2022-09-12T03:32:19.773Z,28.98
2022-09-12T03:34:46.739Z,19.60
2022-09-12T03:37:13.573Z,24.00
2022-09-12T03:39:41.005Z,23.90
2022-09-12T03:42:08.053Z,20.48
2022-09-12T03:44:35.110Z,25.60
2022-09-12T03:47:02.165Z,25.88
2022-09-12T03:49:29.062Z,26.67
2022-09-12T03:51:55.898Z,26.60
2022-09-12T03:54:23.233Z,26.67
2022-09-12T03:56:50.234Z,27.42
2022-09-12T03:59:17.231Z,30.25
2022-09-12T04:01:44.195Z,27.75
2022-09-12T04:04:11.319Z,27.38
2022-09-12T04:06:38.148Z,27.05
2022-09-12T04:09:05.538Z,28.73
2022-09-12T04:11:32.396Z,30.35
2022-09-12T04:13:59.485Z,27.60
2022-09-12T04:16:26.473Z,21.27
2022-09-12T04:18:54.573Z,26.02
2022-09-12T04:21:22.397Z,23.63
2022-09-12T04:23:50.094Z,24.98
2022-09-12T04:26:18.901Z,21.65
2022-09-12T04:28:46.635Z,29.15
2022-09-12T04:31:18.067Z,29.23
2022-09-12T04:33:46.768Z,23.60
2022-09-12T04:36:16.854Z,34.42
2022-09-12T04:38:45.516Z,26.90
2022-09-12T04:41:23.136Z,28.13
2022-09-12T04:44:02.381Z,32.47
2022-09-12T04:46:31.858Z,28.95
2022-09-12T04:48:59.604Z,29.48
2022-09-12T04:54:01.887Z,21.83
2022-09-12T04:56:29.869Z,24.15
2022-09-12T04:58:58.640Z,24.55
2022-09-12T05:01:27.000Z,29.00
2022-09-12T05:03:54.999Z,28.63
2022-09-12T05:06:25.096Z,30.27
2022-09-12T05:08:53.227Z,24.63
2022-09-12T05:11:36.721Z,24.40
2022-09-12T05:14:04.412Z,34.72
2022-09-12T05:16:35.688Z,24.50
2022-09-12T05:19:03.212Z,21.92
2022-09-12T05:21:30.249Z,28.42
2022-09-12T05:24:01.188Z,23.10
2022-09-12T05:26:28.631Z,21.63
2022-09-12T05:28:58.340Z,28.48
2022-09-12T05:31:27.492Z,26.65
2022-09-12T05:33:56.407Z,23.13
2022-09-12T05:36:29.506Z,21.98
2022-09-12T05:38:57.462Z,25.05
2022-09-12T05:41:37.700Z,18.15
2022-09-12T05:44:06.976Z,20.13
2022-09-12T05:46:45.693Z,22.00
2022-09-12T05:49:14.689Z,18.55
2022-09-12T05:51:45.289Z,27.02
2022-09-12T05:54:15.012Z,24.40
2022-09-12T05:56:47.728Z,18.80
2022-09-12T05:59:17.876Z,21.15
2022-09-12T06:01:45.441Z,19.80
2022-09-12T06:04:15.073Z,21.73
2022-09-12T06:06:47.680Z,21.58
2022-09-12T06:09:16.727Z,17.38
2022-09-12T06:11:47.956Z,18.30
2022-09-12T06:14:18.003Z,17.10
2022-09-12T06:16:45.380Z,20.05
2022-09-12T06:19:20.393Z,16.23
2022-09-12T06:21:49.672Z,16.65
2022-09-12T06:24:18.529Z,18.40
2022-09-12T06:26:47.669Z,20.60
2022-09-12T06:29:15.623Z,19.13
2022-09-12T06:31:44.330Z,18.15
2022-09-12T06:34:14.418Z,16.45
2022-09-12T06:36:44.844Z,18.70
2022-09-12T06:39:14.917Z,18.38
2022-09-12T06:41:44.251Z,18.58
2022-09-12T06:44:16.950Z,19.30
2022-09-12T06:46:45.544Z,15.55
2022-09-12T06:54:12.162Z,19.23
2022-09-12T06:56:39.715Z,15.85
2022-09-12T06:59:06.873Z,19.00
2022-09-12T07:01:34.534Z,18.48
2022-09-12T07:04:04.004Z,18.80
2022-09-12T07:06:36.800Z,14.45
2022-09-12T07:09:06.398Z,14.75
2022-09-12T07:11:40.959Z,19.33
2022-09-12T07:14:10.795Z,19.33
2022-09-12T07:16:38.080Z,15.73
2022-09-12T07:19:06.956Z,22.15
2022-09-12T07:21:38.966Z,15.93
2022-09-12T07:24:06.902Z,23.00
2022-09-12T07:26:34.051Z,20.63
2022-09-12T07:29:25.107Z,19.67
2022-09-12T07:34:18.119Z,16.58
2022-09-12T07:36:45.367Z,19.80
2022-09-12T07:39:12.353Z,13.63
2022-09-12T07:41:42.223Z,15.90
2022-09-12T07:44:09.348Z,16.77
2022-09-12T07:46:36.377Z,15.77
2022-09-12T07:49:08.232Z,21.83
2022-09-12T07:51:35.869Z,30.88
2022-09-12T07:54:07.040Z,18.98
2022-09-12T07:56:38.693Z,16.58
2022-09-12T07:59:06.691Z,15.70
2022-09-12T08:01:33.727Z,18.27
2022-09-12T08:04:01.517Z,31.48
2022-09-12T08:06:32.138Z,22.05
2022-09-12T08:08:59.785Z,13.77
2022-09-12T08:11:28.942Z,19.95
2022-09-12T08:13:58.117Z,50.75
2022-09-12T08:16:28.580Z,22.20
2022-09-12T08:18:55.823Z,18.48
2022-09-12T08:21:28.579Z,17.75
2022-09-12T08:24:06.325Z,19.05
2022-09-12T08:26:34.308Z,17.73
2022-09-12T08:29:04.903Z,21.30
2022-09-12T08:31:36.359Z,13.43
2022-09-12T08:34:07.003Z,18.52
2022-09-12T08:36:35.823Z,19.38
2022-09-12T08:39:07.114Z,12.90
2022-09-12T08:41:49.792Z,19.05
2022-09-12T08:44:22.163Z,17.05
2022-09-12T08:47:46.095Z,14.38
2022-09-12T08:50:18.177Z,15.80
2022-09-12T08:53:03.372Z,22.75
2022-09-12T08:55:42.350Z,22.55
2022-09-12T08:58:19.620Z,16.98
2022-09-12T09:03:47.420Z,16.70
2022-09-12T09:06:29.503Z,18.70
2022-09-12T09:09:11.883Z,16.67
2022-09-12T09:11:54.650Z,20.33
2022-09-12T09:14:49.445Z,17.52
2022-09-12T09:17:22.432Z,18.50
2022-09-12T09:20:17.539Z,21.35
2022-09-12T09:22:56.949Z,20.90
2022-09-12T09:25:40.976Z,18.98
2022-09-12T09:28:19.318Z,21.00
2022-09-12T09:30:47.023Z,18.27
2022-09-12T09:35:58.203Z,20.67
2022-09-12T09:38:51.053Z,15.80
2022-09-12T09:41:33.051Z,19.95
2022-09-12T09:44:01.021Z,19.67
2022-09-12T09:46:28.376Z,21.23
2022-09-12T09:48:56.299Z,22.65
2022-09-12T09:51:36.004Z,20.98
2022-09-12T09:54:23.202Z,21.15
2022-09-12T09:56:51.162Z,25.35
2022-09-12T09:59:36.156Z,17.85
2022-09-12T10:02:13.704Z,19.30
2022-09-12T10:04:52.734Z,21.55
2022-09-12T10:07:21.735Z,24.50
2022-09-12T10:10:19.809Z,18.17
2022-09-12T10:12:46.866Z,24.88
2022-09-12T10:15:29.520Z,18.65
2022-09-12T10:17:56.551Z,19.23
2022-09-12T10:20:34.657Z,16.77
2022-09-12T10:23:18.876Z,17.55
2022-09-12T10:25:48.898Z,15.30
2022-09-12T10:28:27.258Z,14.70
2022-09-12T10:30:56.005Z,20.45
2022-09-12T10:33:25.480Z,17.88
2022-09-12T10:35:55.095Z,13.88
2022-09-12T10:38:28.068Z,13.85
2022-09-12T10:41:06.557Z,10.98
2022-09-12T10:43:33.778Z,16.70
2022-09-12T10:49:11.851Z,14.02
2022-09-12T10:51:38.797Z,10.20
2022-09-12T10:54:10.112Z,13.02
2022-09-12T10:56:44.487Z,10.98
2022-09-12T10:59:24.205Z,12.05
2022-09-12T11:01:57.564Z,10.02
2022-09-12T11:04:28.955Z,13.43
2022-09-12T11:07:03.618Z,11.18
2022-09-12T11:10:04.082Z,11.23
2022-09-12T11:12:53.630Z,12.85
2022-09-12T11:15:31.725Z,13.85
2022-09-12T11:18:27.432Z,10.98
2022-09-12T11:21:10.135Z,13.10
2022-09-12T11:23:56.123Z,10.85
2022-09-12T11:26:32.006Z,9.97
2022-09-12T11:29:12.483Z,10.98
2022-09-12T11:31:48.667Z,11.73
2022-09-12T11:34:25.477Z,9.33
2022-09-12T11:37:19.947Z,13.38
2022-09-12T11:39:53.414Z,18.75
2022-09-12T11:42:30.019Z,8.98
2022-09-12T11:45:06.123Z,8.15
2022-09-12T11:47:35.103Z,7.53
2022-09-12T11:50:12.713Z,10.80
2022-09-12T11:52:40.667Z,6.28
2022-09-12T11:55:31.710Z,6.88
2022-09-12T11:57:59.202Z,6.50
2022-09-12T12:00:41.256Z,5.43
2022-09-12T12:03:23.832Z,6.72
2022-09-12T12:06:16.959Z,6.72
2022-09-12T12:08:46.235Z,5.50
2022-09-12T12:11:16.615Z,5.82
2022-09-12T12:14:17.657Z,6.60
2022-09-12T12:16:45.205Z,4.70
2022-09-12T12:19:15.008Z,7.28
2022-09-12T12:21:49.103Z,8.90
2022-09-12T12:24:28.936Z,5.30
2022-09-12T12:26:58.914Z,8.27
2022-09-12T12:29:35.113Z,9.77
2022-09-12T12:32:02.085Z,5.97
2022-09-12T12:34:32.207Z,6.90
2022-09-12T12:37:31.139Z,4.88
2022-09-12T12:40:20.626Z,4.97
2022-09-12T12:42:48.154Z,6.10
2022-09-12T12:45:22.508Z,12.02
2022-09-12T12:48:28.573Z,11.40
2022-09-12T12:51:42.821Z,12.50
2022-09-12T12:54:32.365Z,6.63
2022-09-12T12:57:13.229Z,4.90
2022-09-12T13:00:30.562Z,6.03
2022-09-12T13:03:06.801Z,6.10
2022-09-12T13:05:52.466Z,10.52
2022-09-12T13:08:19.859Z,11.80
2022-09-12T13:11:29.550Z,10.23
2022-09-12T13:14:02.722Z,6.25
2022-09-12T13:16:36.783Z,5.82
2022-09-12T13:19:20.878Z,5.70
2022-09-12T13:22:02.240Z,8.13
2022-09-12T13:24:29.206Z,8.07
2022-09-12T13:26:57.801Z,15.80
2022-09-12T13:29:26.963Z,6.25
2022-09-12T13:32:03.440Z,5.07
2022-09-12T13:34:37.137Z,4.50
2022-09-12T13:37:24.991Z,4.15
2022-09-12T13:40:22.060Z,7.40
2022-09-12T13:43:14.372Z,8.35
2022-09-12T13:45:47.195Z,4.10
2022-09-12T13:48:20.483Z,3.28
2022-09-12T13:51:00.023Z,6.53
2022-09-12T13:53:32.119Z,5.68
2022-09-12T13:56:00.140Z,4.40
2022-09-12T13:58:31.143Z,4.47
2022-09-12T14:01:16.205Z,22.45
2022-09-12T14:04:13.704Z,3.53
2022-09-12T14:06:49.550Z,15.57
2022-09-12T14:09:25.355Z,3.58
2022-09-12T14:11:56.241Z,7.75
2022-09-12T14:14:31.454Z,7.88
2022-09-12T14:16:59.155Z,4.25
2022-09-12T14:19:30.009Z,6.53
2022-09-12T14:21:58.369Z,3.97
2022-09-12T14:24:25.818Z,5.32
2022-09-12T14:26:56.646Z,4.18
2022-09-12T14:29:25.173Z,5.22
2022-09-12T14:32:04.715Z,4.90
2022-09-12T14:34:31.976Z,5.88
2022-09-12T14:39:33.763Z,3.55
2022-09-12T14:42:14.268Z,4.07
2022-09-12T14:44:52.952Z,4.65
2022-09-12T14:47:26.331Z,3.70
2022-09-12T14:49:53.941Z,4.30
2022-09-12T14:52:37.182Z,4.07
2022-09-12T14:55:24.017Z,4.53
2022-09-12T15:00:36.668Z,4.45
2022-09-12T15:03:25.614Z,5.03
2022-09-12T15:05:53.027Z,7.15
2022-09-12T15:08:23.434Z,3.65
2022-09-12T15:10:52.088Z,6.57
2022-09-12T15:13:22.213Z,4.80
2022-09-12T15:15:54.705Z,5.32
2022-09-12T15:18:23.930Z,6.65
2022-09-12T15:20:57.363Z,7.75
2022-09-12T15:23:47.162Z,6.40
2022-09-12T15:26:17.055Z,4.28
2022-09-12T15:28:44.470Z,4.80
2022-09-12T15:33:47.684Z,5.15
2022-09-12T15:36:17.698Z,5.55
2022-09-12T15:38:45.825Z,5.82
2022-09-12T15:41:32.911Z,3.25
2022-09-12T15:43:59.725Z,8.00
2022-09-12T15:46:26.668Z,5.32
2022-09-12T15:48:53.422Z,4.85
2022-09-12T15:51:21.809Z,12.75
2022-09-12T15:53:50.048Z,3.80
2022-09-12T15:56:21.657Z,6.70
2022-09-12T15:58:58.660Z,5.15
2022-09-12T16:01:27.651Z,5.25
2022-09-12T16:03:54.659Z,4.10
2022-09-12T16:06:22.250Z,7.93
2022-09-12T16:08:49.582Z,4.43
2022-09-12T16:13:56.867Z,4.32
2022-09-12T16:16:23.965Z,6.30
2022-09-12T16:21:17.742Z,9.23
2022-09-12T16:23:45.836Z,5.20
2022-09-12T16:26:12.777Z,5.80
2022-09-12T16:28:43.058Z,6.05
2022-09-12T16:31:13.539Z,5.32
2022-09-12T16:33:41.046Z,5.07
2022-09-12T16:36:14.209Z,6.75
2022-09-12T16:38:52.118Z,4.13
2022-09-12T16:41:20.945Z,7.13
2022-09-12T16:43:48.478Z,4.88
2022-09-12T16:46:20.643Z,5.15
2022-09-12T16:48:52.433Z,8.13
2022-09-12T16:51:22.392Z,3.13
2022-09-12T16:53:52.756Z,5.35
2022-09-12T16:56:19.591Z,5.57
2022-09-12T16:58:46.541Z,3.97
2022-09-12T17:01:16.546Z,7.70
2022-09-12T17:03:43.780Z,6.90
2022-09-12T17:08:41.688Z,6.05
2022-09-12T17:11:19.273Z,3.88
2022-09-12T17:14:10.078Z,5.47
2022-09-12T17:16:41.712Z,5.95
2022-09-12T17:19:11.980Z,11.38
2022-09-12T17:21:38.986Z,11.48
2022-09-12T17:24:05.874Z,4.82
2022-09-12T17:26:33.175Z,8.13
2022-09-12T17:29:01.350Z,5.45
2022-09-12T17:31:31.218Z,12.63
2022-09-12T17:33:59.438Z,4.63
2022-09-12T17:36:32.095Z,5.05
2022-09-12T17:38:59.893Z,6.38
2022-09-12T17:41:31.980Z,5.45
2022-09-12T17:44:00.560Z,6.15
2022-09-12T17:46:35.646Z,9.73
2022-09-12T17:49:05.188Z,9.02
2022-09-12T17:51:32.144Z,6.38
2022-09-12T17:54:08.560Z,9.00
2022-09-12T17:56:37.213Z,9.93
2022-09-12T17:59:05.464Z,4.30
2022-09-12T18:01:54.270Z,7.47
2022-09-12T18:04:21.361Z,3.78
2022-09-12T18:06:48.906Z,5.70
2022-09-12T18:09:18.676Z,4.40
2022-09-12T18:11:48.151Z,7.72
2022-09-12T18:14:15.770Z,9.30
2022-09-12T18:16:43.463Z,6.03
2022-09-12T18:19:11.229Z,7.63
2022-09-12T18:21:38.425Z,11.07
2022-09-12T18:24:06.129Z,6.70
2022-09-12T18:26:33.175Z,16.77
2022-09-12T18:28:59.976Z,5.80
2022-09-12T18:31:30.943Z,5.07
2022-09-12T18:34:02.554Z,5.30
2022-09-12T18:36:29.990Z,11.57
2022-09-12T18:41:24.953Z,4.47
2022-09-12T18:43:59.726Z,9.85
2022-09-12T18:46:28.084Z,19.58
2022-09-12T18:48:57.582Z,11.38
2022-09-12T18:51:27.453Z,11.52
2022-09-12T18:53:56.343Z,8.27
2022-09-12T18:56:32.815Z,14.88
2022-09-12T18:59:00.973Z,14.93
2022-09-12T19:01:30.806Z,9.88
2022-09-12T19:03:58.987Z,5.32
2022-09-12T19:06:28.739Z,15.48
2022-09-12T19:08:56.947Z,9.85
2022-09-12T19:11:25.484Z,5.45
2022-09-12T19:13:53.449Z,5.93
2022-09-12T19:16:23.121Z,7.55
2022-09-12T19:18:52.264Z,8.30
2022-09-12T19:21:25.228Z,6.47
2022-09-12T19:23:53.483Z,7.13
2022-09-12T19:26:22.190Z,10.15
2022-09-12T19:28:49.342Z,13.15
2022-09-12T19:31:21.814Z,6.93
2022-09-12T19:33:49.805Z,10.65
2022-09-12T19:39:08.296Z,13.13
2022-09-12T19:41:35.875Z,8.88
2022-09-12T19:44:04.484Z,7.07
2022-09-12T19:46:32.543Z,9.10
2022-09-12T19:48:59.696Z,8.70
2022-09-12T19:51:26.563Z,6.65
2022-09-12T19:53:53.930Z,12.05
2022-09-12T19:56:21.159Z,5.78
2022-09-12T20:01:32.265Z,7.70
2022-09-12T20:03:59.818Z,10.52
2022-09-12T20:06:29.409Z,6.25
2022-09-12T20:08:56.786Z,7.28
2022-09-12T20:11:24.436Z,8.73
2022-09-12T20:13:53.508Z,9.27
2022-09-12T20:16:26.436Z,8.43
2022-09-12T20:18:56.258Z,8.07
2022-09-12T20:21:28.421Z,11.65
2022-09-12T20:23:55.554Z,6.40
2022-09-12T20:26:24.944Z,9.15
2022-09-12T20:28:52.571Z,5.78
2022-09-12T20:31:19.737Z,7.15
2022-09-12T20:33:51.613Z,7.50
2022-09-12T20:36:20.857Z,4.93
2022-09-12T20:38:53.388Z,6.80
2022-09-12T20:41:21.166Z,5.72
2022-09-12T20:43:52.876Z,6.57
2022-09-12T20:46:22.159Z,7.53
2022-09-12T20:48:50.627Z,8.07
2022-09-12T20:51:18.480Z,9.57
2022-09-12T20:53:45.910Z,8.02
2022-09-12T20:56:14.803Z,9.10
2022-09-12T20:58:44.662Z,9.02
2022-09-12T21:01:13.717Z,9.77
2022-09-12T21:03:42.600Z,7.38
2022-09-12T21:06:12.682Z,9.90
2022-09-12T21:08:40.520Z,6.50
2022-09-12T21:11:07.580Z,8.63
2022-09-12T21:13:35.240Z,7.03
2022-09-12T21:16:17.391Z,10.45
2022-09-12T21:18:44.990Z,8.45
2022-09-12T21:23:40.941Z,7.88
2022-09-12T21:26:08.429Z,7.75
2022-09-12T21:31:03.326Z,7.50
2022-09-12T21:33:32.414Z,6.35
2022-09-12T21:36:04.582Z,9.07
2022-09-12T21:38:32.195Z,8.93
2022-09-12T21:41:07.220Z,7.82
2022-09-12T21:43:35.219Z,16.85
2022-09-12T21:46:02.502Z,10.20
2022-09-12T21:48:30.635Z,9.25
2022-09-12T21:50:58.081Z,8.27
2022-09-12T21:58:19.591Z,10.73
2022-09-12T22:00:47.392Z,8.82
2022-09-12T22:03:15.480Z,7.80
2022-09-12T22:05:43.168Z,10.48
2022-09-12T22:08:11.325Z,10.10
2022-09-12T22:10:40.819Z,11.15
2022-09-12T22:13:08.141Z,7.65
2022-09-12T22:15:42.302Z,8.43
2022-09-12T22:18:09.261Z,13.75
2022-09-12T22:20:36.302Z,10.85
2022-09-12T22:23:24.825Z,9.55
2022-09-12T22:25:54.968Z,16.23
2022-09-12T22:28:25.123Z,6.97
2022-09-12T22:30:54.185Z,10.32
2022-09-12T22:33:21.477Z,7.72
2022-09-12T22:35:48.504Z,15.45
2022-09-12T22:38:15.680Z,9.70
2022-09-12T22:40:42.984Z,7.55
2022-09-12T22:43:12.553Z,10.85
2022-09-12T22:45:42.941Z,11.23
2022-09-12T22:48:10.100Z,9.38
2022-09-12T22:50:36.996Z,7.28
2022-09-12T22:53:04.129Z,9.77
2022-09-12T22:55:31.086Z,8.25
2022-09-12T22:57:58.199Z,10.27
2022-09-12T23:00:27.925Z,9.55
2022-09-12T23:02:55.425Z,15.02
2022-09-12T23:05:22.420Z,9.20
2022-09-12T23:07:51.856Z,7.70
2022-09-12T23:10:18.825Z,9.07
2022-09-12T23:12:45.917Z,10.05
2022-09-12T23:15:13.344Z,8.43
2022-09-12T23:17:40.470Z,6.72
2022-09-12T23:20:07.933Z,12.38
2022-09-12T23:22:36.973Z,11.75
2022-09-12T23:25:04.635Z,7.78
2022-09-12T23:27:31.708Z,9.93
2022-09-12T23:29:58.602Z,9.00
2022-09-12T23:32:26.612Z,8.32
2022-09-12T23:34:53.760Z,12.40
2022-09-12T23:37:21.767Z,8.02
2022-09-12T23:39:49.715Z,11.52
2022-09-12T23:42:17.334Z,8.35
2022-09-12T23:47:11.380Z,8.02
2022-09-12T23:49:38.790Z,8.63
2022-09-12T23:52:05.843Z,8.20
2022-09-12T23:54:32.864Z,9.15
2022-09-12T23:57:00.049Z,13.25
2022-09-12T23:59:27.129Z,7.80
